»·PEaware :: N8SR KVGT-KCCB

N8SR :: KVGT-KCCB

FLIGHT INFORMATION

Flight Status: Arrived
Operator: Privately registered:
United States
More flights under this callsign
Pilot: Jim C. (23814)
Aircraft: Unknown
(P28U)
More flights by this aircraft type
Origin: KVGT North Las Vegas
United States
Destination: KCCB Cable
United States
More flights between these airports :: More routes between these airports
Route: +NOTWN5 LAS V394 APLES V442 PDZ KCCB
File this flight plan on PilotEdge
Remarks: Request VTF RNAV GPS RWY 06
Altitude:
(Current/Filed)
12,000ft
Speed:
(Current/Filed)
150kts
Departed: 09-Feb-20 04:48 PM
Arrived: 09-Feb-20 06:32 PM
Distance/Time
Traveled:
176nm/1:43
Distance/Time
To Go:
Arrived

Flight Plot

Page will automatically refresh every two minutes.


Map Options




Map Legend


Flown Route
Filed Route
Departure Airport
Arrival Airport
Navaid (VOR, NDB)
Fix

Horizontal Profiles

Position Reports

Time Latitude Longitude Heading Altitude Ground
Speed
09-Feb-20 16:29 36.209268 -115.198760 314 2208ft 0kts
09-Feb-20 16:30 36.209268 -115.198760 314 2208ft 0kts
09-Feb-20 16:31 36.209268 -115.198760 314 2208ft 0kts
09-Feb-20 16:32 36.209623 -115.198651 41 2208ft 0kts
09-Feb-20 16:33 36.209623 -115.198651 41 2208ft 0kts
09-Feb-20 16:34 36.209623 -115.198651 41 2208ft 0kts
09-Feb-20 16:35 36.209623 -115.198651 41 2208ft 0kts
09-Feb-20 16:36 36.209623 -115.198651 41 2208ft 0kts
09-Feb-20 16:37 36.209623 -115.198651 41 2208ft 0kts
09-Feb-20 16:38 36.209623 -115.198651 41 2208ft 0kts
09-Feb-20 16:39 36.209623 -115.198651 41 2208ft 0kts
09-Feb-20 16:40 36.209623 -115.198651 41 2208ft 0kts
09-Feb-20 16:41 36.209421 -115.197854 132 2208ft 10kts
09-Feb-20 16:42 36.207725 -115.195049 132 2208ft 8kts
09-Feb-20 16:43 36.206025 -115.192911 134 2208ft 12kts
09-Feb-20 16:44 36.204725 -115.191141 76 2208ft 0kts
09-Feb-20 16:45 36.204725 -115.191137 76 2208ft 0kts
09-Feb-20 16:46 36.204758 -115.191048 58 2208ft 4kts
09-Feb-20 16:47 36.213201 -115.200820 312 2499ft 87kts
09-Feb-20 16:48 36.218716 -115.229396 280 3697ft 95kts
09-Feb-20 16:49 36.225448 -115.262075 289 4836ft 100kts
09-Feb-20 16:50 36.248154 -115.279213 25 5909ft 100kts
09-Feb-20 16:51 36.233715 -115.259043 155 6893ft 102kts
09-Feb-20 16:52 36.207958 -115.240641 144 7816ft 104kts
09-Feb-20 16:53 36.184161 -115.222933 155 8820ft 100kts
09-Feb-20 16:54 36.159871 -115.209300 155 10021ft 95kts
09-Feb-20 16:55 36.135355 -115.195617 155 11149ft 97kts
09-Feb-20 16:56 36.110008 -115.179239 152 12006ft 119kts
09-Feb-20 16:57 36.072918 -115.162025 176 12011ft 156kts
09-Feb-20 16:58 36.028910 -115.162069 181 12009ft 159kts
09-Feb-20 16:59 35.984646 -115.162893 181 12009ft 159kts
09-Feb-20 17:00 35.940134 -115.163722 180 12009ft 159kts
09-Feb-20 17:01 35.895858 -115.164407 180 12010ft 159kts
09-Feb-20 17:02 35.851475 -115.165219 180 12010ft 159kts
09-Feb-20 17:03 35.807161 -115.166031 180 12010ft 159kts
09-Feb-20 17:04 35.762737 -115.166844 180 12010ft 159kts
09-Feb-20 17:05 35.718377 -115.166529 180 12009ft 159kts
09-Feb-20 17:06 35.673986 -115.167115 180 12010ft 159kts
09-Feb-20 17:07 35.629735 -115.167920 180 12009ft 159kts
09-Feb-20 17:08 35.585401 -115.168747 180 12010ft 159kts
09-Feb-20 17:09 35.541950 -115.169561 180 12147ft 158kts
09-Feb-20 17:10 35.497665 -115.170404 180 12147ft 159kts
09-Feb-20 17:11 35.453645 -115.171234 180 12147ft 159kts
09-Feb-20 17:12 35.423208 -115.171807 180 12147ft 159kts
09-Feb-20 17:13 35.384016 -115.172544 180 12147ft 159kts
09-Feb-20 17:14 35.339653 -115.173376 180 12147ft 159kts
09-Feb-20 17:15 35.295392 -115.174206 180 12147ft 159kts
09-Feb-20 17:16 35.251066 -115.175036 180 12147ft 159kts
09-Feb-20 17:17 35.206751 -115.175865 180 12147ft 159kts
09-Feb-20 17:18 35.162445 -115.176693 180 12147ft 159kts
09-Feb-20 17:19 35.128241 -115.200775 246 12146ft 159kts
09-Feb-20 17:20 35.113343 -115.251639 252 12147ft 159kts
09-Feb-20 17:21 35.099974 -115.303199 252 12147ft 159kts
09-Feb-20 17:22 35.086745 -115.355121 252 12147ft 159kts
09-Feb-20 17:23 35.073061 -115.406639 251 12147ft 159kts
09-Feb-20 17:24 35.059532 -115.458148 252 12147ft 159kts
09-Feb-20 17:25 35.046260 -115.509876 252 12147ft 159kts
09-Feb-20 17:26 35.032979 -115.561736 252 12147ft 160kts
09-Feb-20 17:27 35.019785 -115.613193 252 12146ft 157kts
09-Feb-20 17:28 35.006809 -115.663675 252 12147ft 155kts
09-Feb-20 17:29 34.993875 -115.713901 252 12147ft 155kts
09-Feb-20 17:30 34.980943 -115.764038 252 12147ft 155kts
09-Feb-20 17:31 34.967982 -115.814198 252 12147ft 155kts
09-Feb-20 17:32 34.955030 -115.864227 252 12147ft 155kts
09-Feb-20 17:33 34.942017 -115.914398 252 12147ft 155kts
09-Feb-20 17:34 34.930690 -115.957989 252 12147ft 155kts
09-Feb-20 17:35 34.917640 -116.008124 252 12147ft 155kts
09-Feb-20 17:36 34.904624 -116.058032 252 12147ft 155kts
09-Feb-20 17:37 34.891498 -116.108265 252 12147ft 155kts
09-Feb-20 17:38 34.878414 -116.158244 252 12147ft 155kts
09-Feb-20 17:39 34.865290 -116.208284 252 12147ft 155kts
09-Feb-20 17:40 34.852168 -116.258220 252 12147ft 155kts
09-Feb-20 17:41 34.839019 -116.308166 252 12147ft 155kts
09-Feb-20 17:42 34.825840 -116.358144 252 12147ft 155kts
09-Feb-20 17:43 34.812598 -116.408242 252 12147ft 155kts
09-Feb-20 17:44 34.799347 -116.458158 250 12147ft 155kts
09-Feb-20 17:45 34.782439 -116.506759 246 12092ft 155kts
09-Feb-20 17:46 34.765208 -116.555035 246 12092ft 155kts
09-Feb-20 17:47 34.747999 -116.603074 246 12092ft 155kts
09-Feb-20 17:49 34.730788 -116.651034 246 12092ft 155kts
09-Feb-20 17:50 34.713478 -116.699200 246 12092ft 155kts
09-Feb-20 17:51 34.696215 -116.747157 246 12092ft 155kts
09-Feb-20 17:52 34.678395 -116.794871 244 12092ft 155kts
09-Feb-20 17:53 34.660532 -116.842364 245 12130ft 153kts
09-Feb-20 17:54 34.643210 -116.889946 246 12138ft 154kts
09-Feb-20 17:55 34.625889 -116.937732 246 12138ft 155kts
09-Feb-20 17:56 34.608491 -116.985695 246 12138ft 155kts
09-Feb-20 17:57 34.591131 -117.033488 246 12138ft 155kts
09-Feb-20 17:58 34.573707 -117.081388 246 12138ft 155kts
09-Feb-20 17:59 34.556306 -117.129153 246 12138ft 155kts
09-Feb-20 18:00 34.525199 -117.162941 208 12138ft 155kts
09-Feb-20 18:01 34.487054 -117.187196 207 12138ft 155kts
09-Feb-20 18:02 34.448653 -117.210749 206 12138ft 155kts
09-Feb-20 18:03 34.410066 -117.233792 206 12138ft 155kts
09-Feb-20 18:04 34.371408 -117.257130 206 12138ft 155kts
09-Feb-20 18:05 34.332928 -117.280467 206 12078ft 158kts
09-Feb-20 18:06 34.291568 -117.305543 206 11387ft 169kts
09-Feb-20 18:06 34.256580 -117.326725 206 10779ft 171kts
09-Feb-20 18:08 34.208267 -117.355941 206 9651ft 162kts
09-Feb-20 18:09 34.168876 -117.379542 206 8673ft 152kts
09-Feb-20 18:09 34.138920 -117.397576 206 8302ft 140kts
09-Feb-20 18:10 34.105210 -117.417898 206 7879ft 137kts
09-Feb-20 18:12 34.066466 -117.441234 206 6911ft 137kts
09-Feb-20 18:13 34.031624 -117.462204 206 5719ft 142kts
09-Feb-20 18:13 34.002333 -117.479821 206 4720ft 141kts
09-Feb-20 18:14 33.971051 -117.499958 233 4292ft 110kts
09-Feb-20 18:15 33.983893 -117.526146 323 4301ft 99kts
09-Feb-20 18:16 34.005719 -117.545750 323 4301ft 97kts
09-Feb-20 18:17 34.027429 -117.565178 323 4301ft 97kts
09-Feb-20 18:18 34.051669 -117.586792 323 3833ft 123kts
09-Feb-20 18:19 34.080841 -117.612767 323 2936ft 133kts
09-Feb-20 18:20 34.107155 -117.638472 300 2742ft 118kts
09-Feb-20 18:21 34.121294 -117.674312 276 2744ft 119kts
09-Feb-20 18:22 34.104160 -117.678774 88 2945ft 114kts
09-Feb-20 18:23 34.114251 -117.640049 52 2937ft 108kts
09-Feb-20 18:24 34.132000 -117.652247 260 2700ft 94kts
09-Feb-20 18:25 34.138425 -117.678190 348 2576ft 86kts
09-Feb-20 18:26 34.146735 -117.652696 95 3385ft 115kts
09-Feb-20 18:27 34.143646 -117.608506 118 2915ft 142kts
09-Feb-20 18:28 34.118050 -117.611371 259 2847ft 135kts
09-Feb-20 18:29 34.119355 -117.655262 269 2428ft 112kts
09-Feb-20 18:30 34.112651 -117.684052 249 1445ft 47kts
09-Feb-20 18:31 34.111826 -117.688567 308 1445ft 0kts
09-Feb-20 18:32 34.111826 -117.688567 308 1445ft 0kts
09-Feb-20 18:33 34.111826 -117.688567 308 1445ft 0kts

Navigation Log

Ident Type
Flight plan parsing failed, navigation log unavailable